Terminal Aerodrome Forecast
Issued by NWS

Home | Current Version | Previous Version | Text Only | Print | Product List | Glossary On
Versions: 1 2 3 4 5 6 7 8 9 10 11 12 13 14 15 16 17 18 19 20 21 22
444
FTUS41 KCAR 040538
TAFHUL
TAF
KHUL 040538Z 0406/0506 03006KT P6SM OVC015
     FM040800 05004KT 3SM BR OVC007
     FM041100 08004KT P6SM BKN025
     FM041400 08004KT P6SM BKN040=

USA.gov is the U.S. government's official web portal to all federal, state and local government web resources and services.